createdAt,value
2024-05-09T00:01:42.707Z,5.9
2024-05-09T00:02:45.413Z,8.9
2024-05-09T00:03:48.375Z,11.4
2024-05-09T00:04:51.684Z,13.4
2024-05-09T00:05:54.714Z,15.1
2024-05-09T00:06:57.336Z,16.4
2024-05-09T00:07:59.934Z,17.5
2024-05-09T00:09:02.573Z,18.3
2024-05-09T00:11:10.416Z,5.8
2024-05-09T00:12:13.356Z,8.9
2024-05-09T00:13:16.301Z,11.4
2024-05-09T00:14:18.820Z,13.4
2024-05-09T00:15:21.529Z,15.1
2024-05-09T00:16:24.086Z,16.4
2024-05-09T00:17:26.952Z,17.5
2024-05-09T00:18:30.209Z,18.3
2024-05-09T00:19:33.243Z,19
2024-05-09T00:21:41.268Z,5.8
2024-05-09T00:22:43.770Z,8.9
2024-05-09T00:23:46.416Z,11.4
2024-05-09T00:24:48.809Z,13.4
2024-05-09T00:25:51.321Z,15
2024-05-09T00:26:54.038Z,16.4
2024-05-09T00:27:56.499Z,17.4
2024-05-09T00:28:58.946Z,18.3
2024-05-09T00:30:02.086Z,19
2024-05-09T00:31:10.502Z,5.8
2024-05-09T00:32:13.169Z,8.9
2024-05-09T00:33:16.709Z,11.4
2024-05-09T00:34:20.691Z,13.4
2024-05-09T00:35:24.052Z,15.1
2024-05-09T00:36:27.239Z,16.4
2024-05-09T00:37:29.683Z,17.5
2024-05-09T00:38:32.348Z,18.4
2024-05-09T00:39:35.350Z,19.1
2024-05-09T00:41:43.032Z,5.8
2024-05-09T00:42:45.346Z,8.9
2024-05-09T00:43:48.002Z,11.5
2024-05-09T00:44:50.689Z,13.5
2024-05-09T00:45:53.147Z,15.1
2024-05-09T00:46:55.673Z,16.5
2024-05-09T00:47:58.843Z,17.5
2024-05-09T00:49:02.942Z,18.4
2024-05-09T00:51:11.276Z,5.8
2024-05-09T00:52:14.034Z,8.9
2024-05-09T00:53:16.652Z,11.4
2024-05-09T00:54:19.356Z,13.4
2024-05-09T00:55:21.775Z,15.1
2024-05-09T00:56:24.297Z,16.4
2024-05-09T00:57:27.236Z,17.5
2024-05-09T00:58:29.673Z,18.4
2024-05-09T00:59:32.377Z,19.1
2024-05-09T01:01:40.483Z,5.8
2024-05-09T01:02:43.580Z,8.9
2024-05-09T01:04:51.890Z,5.8
2024-05-09T01:05:55.028Z,8.9
2024-05-09T01:06:58.011Z,11.4
2024-05-09T01:08:00.688Z,13.4
2024-05-09T01:09:03.765Z,15.1
2024-05-09T01:11:11.803Z,5.9
2024-05-09T01:12:14.924Z,8.9
2024-05-09T01:13:18.079Z,11.4
2024-05-09T01:14:20.578Z,13.4
2024-05-09T01:15:23.156Z,15.1
2024-05-09T01:16:25.449Z,16.4
2024-05-09T01:17:28.129Z,17.5
2024-05-09T01:18:31.682Z,18.4
2024-05-09T01:19:34.751Z,19.1
2024-05-09T01:21:42.839Z,5.8
2024-05-09T01:22:45.215Z,9
2024-05-09T01:23:47.910Z,11.5
2024-05-09T01:24:50.137Z,13.5
2024-05-09T01:25:52.507Z,15.1
2024-05-09T01:26:55.164Z,16.5
2024-05-09T01:27:57.435Z,17.5
2024-05-09T01:28:59.916Z,18.4
2024-05-09T01:31:07.891Z,5.8
2024-05-09T01:32:10.557Z,8.9
2024-05-09T01:33:14.781Z,11.4
2024-05-09T01:34:17.931Z,13.5
2024-05-09T01:35:20.671Z,15.1
2024-05-09T01:36:23.673Z,16.4
2024-05-09T01:37:26.094Z,17.5
2024-05-09T01:38:28.811Z,18.4
2024-05-09T01:39:31.811Z,19.1
2024-05-09T01:41:39.370Z,5.8
2024-05-09T01:42:41.795Z,9
2024-05-09T01:43:44.157Z,11.4
2024-05-09T01:44:46.697Z,13.5
2024-05-09T01:45:49.185Z,15.2
2024-05-09T01:46:51.666Z,16.5
2024-05-09T01:47:54.900Z,17.6
2024-05-09T01:48:58.493Z,18.5
2024-05-09T01:50:01.748Z,19.2
2024-05-09T01:51:11.659Z,5.8
2024-05-09T01:52:14.452Z,8.9
2024-05-09T01:53:17.010Z,11.4
2024-05-09T01:54:19.782Z,13.5
2024-05-09T01:55:22.229Z,15.1
2024-05-09T01:56:24.839Z,16.5
2024-05-09T01:57:27.520Z,17.5
2024-05-09T01:58:29.977Z,18.4
2024-05-09T01:59:32.616Z,19.2
2024-05-09T02:02:45.761Z,5.8
2024-05-09T02:03:49.427Z,8.9
2024-05-09T02:04:53.587Z,11.4
2024-05-09T02:05:56.501Z,13.4
2024-05-09T02:06:59.102Z,15.1
2024-05-09T02:08:01.812Z,16.4
2024-05-09T02:09:04.672Z,17.5
2024-05-09T02:11:12.715Z,5.8
2024-05-09T02:12:16.343Z,8.9
2024-05-09T02:13:19.716Z,11.5
2024-05-09T02:14:22.287Z,13.5
2024-05-09T02:15:25.016Z,15.2
2024-05-09T02:16:27.250Z,16.5
2024-05-09T02:17:30.025Z,17.6
2024-05-09T02:18:33.751Z,18.5
2024-05-09T02:19:36.764Z,19.2
2024-05-09T02:20:39.930Z,19.8
2024-05-09T02:21:44.275Z,20.2
2024-05-09T02:22:46.802Z,20.6
2024-05-09T02:23:49.434Z,20.9
2024-05-09T02:24:51.846Z,21.2
2024-05-09T02:25:54.420Z,21.4
2024-05-09T02:26:57.199Z,21.6
2024-05-09T02:27:59.917Z,21.7
2024-05-09T02:29:02.518Z,21.8
2024-05-09T02:31:10.246Z,5.8
2024-05-09T02:32:13.024Z,9
2024-05-09T02:33:16.079Z,11.5
2024-05-09T02:34:19.275Z,13.6
2024-05-09T02:35:22.262Z,15.2
2024-05-09T02:36:25.123Z,16.5
2024-05-09T02:37:27.395Z,17.6
2024-05-09T02:38:29.880Z,18.4
2024-05-09T02:39:32.710Z,19.1
2024-05-09T02:41:40.206Z,5.8
2024-05-09T02:42:42.688Z,8.9
2024-05-09T02:43:44.986Z,11.5
2024-05-09T02:44:47.589Z,13.5
2024-05-09T02:45:49.869Z,15.2
2024-05-09T02:46:52.368Z,16.5
2024-05-09T02:47:55.515Z,17.6
2024-05-09T02:48:59.726Z,18.5
2024-05-09T02:50:03.042Z,19.2
2024-05-09T02:51:14.470Z,5.8
2024-05-09T02:52:17.070Z,8.9
2024-05-09T02:53:19.603Z,11.4
2024-05-09T02:54:21.966Z,13.5
2024-05-09T02:55:24.394Z,15.1
2024-05-09T02:56:26.737Z,16.5
2024-05-09T02:57:29.535Z,17.5
2024-05-09T02:58:31.990Z,18.4
2024-05-09T02:59:34.409Z,19.2
2024-05-09T03:01:42.319Z,5.9
2024-05-09T03:02:45.222Z,9
2024-05-09T03:03:48.591Z,11.5
2024-05-09T03:04:51.879Z,13.5
2024-05-09T03:05:54.892Z,15.2
2024-05-09T03:06:57.374Z,16.5
2024-05-09T03:08:00.014Z,17.6
2024-05-09T03:09:02.895Z,18.5
2024-05-09T03:11:10.776Z,5.8
2024-05-09T03:12:13.949Z,9
2024-05-09T03:13:17.079Z,11.5
2024-05-09T03:14:19.636Z,13.5
2024-05-09T03:15:22.336Z,15.2
2024-05-09T03:16:24.781Z,16.5
2024-05-09T03:17:27.702Z,17.5
2024-05-09T03:18:30.904Z,18.4
2024-05-09T03:19:33.847Z,19.1
2024-05-09T03:20:37.595Z,19.7
2024-05-09T03:21:41.489Z,20.2
2024-05-09T03:22:44.150Z,20.6
2024-05-09T03:23:46.996Z,20.8
2024-05-09T03:24:49.549Z,21.1
2024-05-09T03:25:52.098Z,21.3
2024-05-09T03:26:54.725Z,21.5
2024-05-09T03:27:57.296Z,21.6
2024-05-09T03:28:59.859Z,21.7
2024-05-09T03:30:03.946Z,21.8
2024-05-09T03:31:08.114Z,5.8
2024-05-09T03:32:10.817Z,8.9
2024-05-09T03:33:15.917Z,11.4
2024-05-09T03:34:22.798Z,13.5
2024-05-09T03:35:25.796Z,15.1
2024-05-09T03:36:28.686Z,16.5
2024-05-09T03:37:31.102Z,17.5
2024-05-09T03:38:33.753Z,18.4
2024-05-09T03:39:36.754Z,19.1
2024-05-09T03:40:39.213Z,19.7
2024-05-09T03:41:41.577Z,20.1
2024-05-09T03:42:44.141Z,20.5
2024-05-09T03:43:46.649Z,20.8
2024-05-09T03:44:49.280Z,21.1
2024-05-09T03:45:51.722Z,21.3
2024-05-09T03:46:54.187Z,21.5
2024-05-09T03:47:57.590Z,21.7
2024-05-09T03:49:00.945Z,21.7
2024-05-09T03:51:09.271Z,5.9
2024-05-09T03:52:12.063Z,9
2024-05-09T03:53:14.939Z,11.5
2024-05-09T03:54:17.890Z,13.5
2024-05-09T03:55:20.334Z,15.1
2024-05-09T03:56:22.848Z,16.5
2024-05-09T03:57:25.656Z,17.5
2024-05-09T03:58:28.081Z,18.4
2024-05-09T03:59:30.707Z,19.1
2024-05-09T04:01:39.011Z,5.8
2024-05-09T04:02:41.678Z,8.9
2024-05-09T04:03:45.150Z,11.5
2024-05-09T04:04:48.472Z,13.5
2024-05-09T04:05:51.724Z,15.1
2024-05-09T04:06:54.269Z,16.4
2024-05-09T04:07:56.869Z,17.5
2024-05-09T04:08:59.642Z,18.4
2024-05-09T04:10:02.263Z,19.1
2024-05-09T04:11:10.435Z,5.8
2024-05-09T04:12:13.631Z,8.9
2024-05-09T04:13:16.615Z,11.5
2024-05-09T04:14:19.078Z,13.5
2024-05-09T04:15:21.934Z,15.1
2024-05-09T04:16:24.333Z,16.4
2024-05-09T04:17:27.126Z,17.5
2024-05-09T04:18:30.789Z,18.4
2024-05-09T04:19:34.026Z,19.1
2024-05-09T04:21:41.997Z,5.8
2024-05-09T04:22:44.489Z,8.9
2024-05-09T04:23:47.332Z,11.4
2024-05-09T04:24:50.191Z,13.5
2024-05-09T04:25:52.743Z,15.1
2024-05-09T04:26:55.388Z,16.4
2024-05-09T04:27:57.705Z,17.5
2024-05-09T04:29:00.226Z,18.4
2024-05-09T04:30:03.679Z,19.1
2024-05-09T04:31:10.804Z,5.8
2024-05-09T04:32:13.479Z,8.9
2024-05-09T04:33:16.792Z,11.5
2024-05-09T04:34:20.530Z,13.6
2024-05-09T04:35:23.813Z,15.2
2024-05-09T04:36:26.948Z,16.6
2024-05-09T04:37:29.334Z,17.6
2024-05-09T04:38:31.854Z,18.4
2024-05-09T04:39:34.822Z,19.1
2024-05-09T04:40:38.620Z,19.7
2024-05-09T04:41:41.469Z,20.1
2024-05-09T04:42:43.900Z,20.5
2024-05-09T04:43:46.177Z,20.8
2024-05-09T04:44:48.760Z,21
2024-05-09T04:45:51.267Z,21.2
2024-05-09T04:46:53.755Z,21.4
2024-05-09T04:47:56.742Z,21.5
2024-05-09T04:49:01.044Z,21.6
2024-05-09T04:50:04.506Z,21.7
2024-05-09T04:51:11.717Z,5.9
2024-05-09T04:52:14.106Z,9
2024-05-09T04:53:16.960Z,11.4
2024-05-09T04:55:25.506Z,5.8
2024-05-09T04:56:28.097Z,8.9
2024-05-09T04:57:30.909Z,11.4
2024-05-09T04:58:32.948Z,13.4
2024-05-09T04:59:35.243Z,15.1
2024-05-09T05:00:40.545Z,16.4
2024-05-09T05:01:44.741Z,17.5
2024-05-09T05:02:48.009Z,18.3
2024-05-09T05:03:51.352Z,19
2024-05-09T05:04:57.441Z,19.6
2024-05-09T05:06:00.598Z,20
2024-05-09T05:07:03.488Z,20.4
2024-05-09T05:08:06.273Z,20.7
2024-05-09T05:09:08.887Z,21
2024-05-09T05:11:16.471Z,5.8
2024-05-09T05:12:19.591Z,8.9
2024-05-09T05:13:24.540Z,11.4
2024-05-09T05:14:27.758Z,13.4
2024-05-09T05:15:30.434Z,15.1
2024-05-09T05:16:32.880Z,16.4
2024-05-09T05:17:35.821Z,17.4
2024-05-09T05:18:39.538Z,18.4
2024-05-09T05:19:42.509Z,19
2024-05-09T05:20:45.870Z,19.6
2024-05-09T05:21:48.928Z,20.1
2024-05-09T05:22:51.441Z,20.5
2024-05-09T05:23:53.998Z,20.8
2024-05-09T05:24:56.204Z,21
2024-05-09T05:25:58.604Z,21.2
2024-05-09T05:27:01.257Z,21.4
2024-05-09T05:28:03.704Z,21.5
2024-05-09T05:29:06.216Z,21.6
2024-05-09T05:31:14.224Z,5.8
2024-05-09T05:32:17.322Z,8.9
2024-05-09T05:33:21.158Z,11.4
2024-05-09T05:34:25.167Z,13.4
2024-05-09T05:35:27.886Z,15.1
2024-05-09T05:36:30.923Z,16.4
2024-05-09T05:37:33.345Z,17.5
2024-05-09T05:38:35.945Z,18.3
2024-05-09T05:39:38.553Z,19
2024-05-09T05:40:41.793Z,19.6
2024-05-09T05:41:44.157Z,20.1
2024-05-09T05:42:46.425Z,20.4
2024-05-09T05:43:49.024Z,20.7
2024-05-09T05:44:51.961Z,21
2024-05-09T05:45:54.390Z,21.2
2024-05-09T05:46:56.878Z,21.3
2024-05-09T05:47:59.907Z,21.5
2024-05-09T05:49:03.647Z,21.6
2024-05-09T05:51:12.044Z,5.8
2024-05-09T05:52:15.120Z,8.9
2024-05-09T05:53:17.660Z,11.4
2024-05-09T05:54:20.208Z,13.5
2024-05-09T05:55:22.668Z,15.1
2024-05-09T05:56:25.195Z,16.4
2024-05-09T05:57:27.948Z,17.5
2024-05-09T05:58:30.358Z,18.3
2024-05-09T05:59:33.083Z,19
2024-05-09T06:01:41.280Z,5.8
2024-05-09T06:02:43.795Z,8.9
2024-05-09T06:03:47.594Z,11.4
2024-05-09T06:04:51.041Z,13.4
2024-05-09T06:05:54.210Z,15
2024-05-09T06:06:56.823Z,16.4
2024-05-09T06:07:59.429Z,17.5
2024-05-09T06:09:02.482Z,18.3
2024-05-09T06:11:10.162Z,5.8
2024-05-09T06:12:13.063Z,8.9
2024-05-09T06:13:16.446Z,11.4
2024-05-09T06:14:18.967Z,13.4
2024-05-09T06:15:21.708Z,15.1
2024-05-09T06:16:24.151Z,16.5
2024-05-09T06:17:26.954Z,17.5
2024-05-09T06:18:30.900Z,18.4
2024-05-09T06:19:34.580Z,19.1
2024-05-09T06:20:39.021Z,19.7
2024-05-09T06:21:43.104Z,20.2
2024-05-09T06:22:45.613Z,20.6
2024-05-09T06:23:48.439Z,20.9
2024-05-09T06:24:51.022Z,21.1
2024-05-09T06:25:53.569Z,21.3
2024-05-09T06:26:56.253Z,21.5
2024-05-09T06:27:58.701Z,21.6
2024-05-09T06:29:01.506Z,21.8
2024-05-09T06:30:05.133Z,21.9
2024-05-09T06:31:11.323Z,5.8
2024-05-09T06:32:14.164Z,9
2024-05-09T06:33:17.910Z,11.5
2024-05-09T06:34:21.682Z,13.5
2024-05-09T06:35:24.965Z,15.2
2024-05-09T06:36:27.653Z,16.6
2024-05-09T06:37:30.120Z,17.7
2024-05-09T06:38:32.611Z,18.5
2024-05-09T06:39:35.711Z,19.2
2024-05-09T06:41:43.448Z,5.8
2024-05-09T06:42:46.071Z,8.9
2024-05-09T06:43:48.588Z,11.5
2024-05-09T06:44:51.246Z,13.5
2024-05-09T06:45:53.705Z,15.2
2024-05-09T06:48:01.686Z,5.9
2024-05-09T06:49:05.617Z,9
2024-05-09T06:51:14.214Z,5.9
2024-05-09T06:52:16.577Z,9
2024-05-09T06:53:19.182Z,11.5
2024-05-09T06:54:21.804Z,13.5
2024-05-09T06:55:24.307Z,15.2
2024-05-09T06:56:26.823Z,16.6
2024-05-09T06:57:29.454Z,17.7
2024-05-09T06:58:31.924Z,18.6
2024-05-09T06:59:34.481Z,19.3
2024-05-09T07:01:42.388Z,5.9
2024-05-09T07:02:45.178Z,9
2024-05-09T07:03:48.466Z,11.5
2024-05-09T07:04:51.618Z,13.6
2024-05-09T07:05:55.306Z,15.2
2024-05-09T07:06:57.963Z,16.5
2024-05-09T07:08:00.643Z,17.6
2024-05-09T07:09:03.304Z,18.5
2024-05-09T07:11:11.120Z,5.8
2024-05-09T07:12:14.389Z,9
2024-05-09T07:13:17.499Z,11.5
2024-05-09T07:14:19.807Z,13.6
2024-05-09T07:15:22.507Z,15.2
2024-05-09T07:16:25.106Z,16.6
2024-05-09T07:17:28.031Z,17.6
2024-05-09T07:18:31.721Z,18.5
2024-05-09T07:19:35.272Z,19.2
2024-05-09T07:20:38.634Z,19.9
2024-05-09T07:21:41.568Z,20.3
2024-05-09T07:22:44.099Z,20.7
2024-05-09T07:23:48.064Z,21
2024-05-09T07:24:51.041Z,21.3
2024-05-09T07:25:53.605Z,21.4
2024-05-09T07:26:56.295Z,21.6
2024-05-09T07:27:58.603Z,21.8
2024-05-09T07:29:01.184Z,21.8
2024-05-09T07:30:07.287Z,21.9
2024-05-09T07:31:13.456Z,5.8
2024-05-09T07:32:16.189Z,9
2024-05-09T07:33:21.160Z,11.5
2024-05-09T07:34:26.126Z,5.9
2024-05-09T07:35:29.660Z,9
2024-05-09T07:36:33.672Z,11.6
2024-05-09T07:37:36.150Z,13.6
2024-05-09T07:38:39.126Z,15.2
2024-05-09T07:39:41.843Z,16.6
2024-05-09T07:40:44.271Z,17.7
2024-05-09T07:41:47.410Z,18.6
2024-05-09T07:42:50.044Z,19.3
2024-05-09T07:43:52.360Z,19.9
2024-05-09T07:46:17.079Z,5.9
2024-05-09T07:54:43.140Z,5.8
2024-05-09T07:55:46.510Z,9
2024-05-09T07:56:50.035Z,11.5
2024-05-09T07:57:53.599Z,13.6
2024-05-09T07:58:56.645Z,15.3
2024-05-09T07:59:58.931Z,16.6
2024-05-09T08:01:01.597Z,17.7
2024-05-09T08:02:05.042Z,18.6
2024-05-09T08:03:08.630Z,19.3
2024-05-09T08:04:11.439Z,19.9
2024-05-09T08:05:14.527Z,20.3
2024-05-09T08:06:17.856Z,20.7
2024-05-09T08:07:20.402Z,21
2024-05-09T08:08:23.129Z,21.2
2024-05-09T08:09:25.605Z,21.4
2024-05-09T08:10:29.906Z,21.6
2024-05-09T08:11:32.842Z,21.7
2024-05-09T08:12:35.581Z,21.8
2024-05-09T08:13:38.145Z,21.9
2024-05-09T08:14:40.570Z,22
2024-05-09T08:15:43.115Z,22.1
2024-05-09T08:16:45.697Z,22.1
2024-05-09T08:17:48.324Z,22.1
2024-05-09T08:18:51.436Z,22.1
2024-05-09T08:19:54.552Z,22.1
2024-05-09T08:20:56.956Z,22.2
2024-05-09T08:21:59.516Z,22.2
2024-05-09T08:23:02.205Z,22.2
2024-05-09T08:24:04.450Z,22.2
2024-05-09T08:25:07.194Z,22.2
2024-05-09T08:26:13.494Z,5.9
2024-05-09T08:27:15.925Z,9
2024-05-09T08:28:18.671Z,11.5
2024-05-09T08:29:21.786Z,13.5
2024-05-09T08:31:29.657Z,5.8
2024-05-09T08:32:32.569Z,8.9
2024-05-09T08:33:36.221Z,11.5
2024-05-09T08:34:40.320Z,13.6
2024-05-09T08:35:42.865Z,15.2
2024-05-09T08:36:45.220Z,16.5
2024-05-09T08:37:47.986Z,17.6
2024-05-09T08:38:50.546Z,18.5
2024-05-09T08:39:53.146Z,19.2
2024-05-09T08:40:55.744Z,19.8
2024-05-09T08:41:58.206Z,20.3
2024-05-09T08:43:00.822Z,20.7
2024-05-09T08:44:03.846Z,20.9
2024-05-09T08:45:06.298Z,21.2
2024-05-09T08:46:08.793Z,21.4
2024-05-09T08:47:11.586Z,21.6
2024-05-09T08:48:16.510Z,21.7
2024-05-09T08:49:20.079Z,21.8
2024-05-09T08:51:28.225Z,5.9
2024-05-09T08:52:30.793Z,9
2024-05-09T08:53:33.417Z,11.5
2024-05-09T08:54:35.997Z,13.6
2024-05-09T08:56:43.585Z,5.9
2024-05-09T08:57:46.006Z,9
2024-05-09T08:58:48.632Z,11.5
2024-05-09T08:59:51.066Z,13.5
2024-05-09T09:00:53.846Z,15.2
2024-05-09T09:01:56.838Z,16.6
2024-05-09T09:02:59.750Z,17.6
2024-05-09T09:04:02.504Z,18.5
2024-05-09T09:05:06.099Z,19.2
2024-05-09T09:06:09.152Z,19.8
2024-05-09T09:07:11.676Z,20.3
2024-05-09T09:08:14.201Z,20.7
2024-05-09T09:09:16.650Z,21
2024-05-09T09:11:24.295Z,5.9
2024-05-09T09:12:26.949Z,9
2024-05-09T09:13:29.404Z,11.5
2024-05-09T09:14:31.874Z,13.5
2024-05-09T09:15:34.393Z,15.2
2024-05-09T09:16:37.055Z,16.5
2024-05-09T09:17:39.686Z,17.6
2024-05-09T09:18:42.899Z,18.5
2024-05-09T09:19:46.532Z,19.2
2024-05-09T09:20:49.162Z,19.8
2024-05-09T09:21:51.769Z,20.3
2024-05-09T09:22:54.433Z,20.7
2024-05-09T09:23:56.885Z,21
2024-05-09T09:24:59.357Z,21.2
2024-05-09T09:26:02.285Z,21.4
2024-05-09T09:27:04.750Z,21.6
2024-05-09T09:28:07.543Z,21.8
2024-05-09T09:29:11.568Z,21.9
2024-05-09T09:31:19.568Z,5.9
2024-05-09T09:32:22.480Z,9
2024-05-09T09:33:25.536Z,11.6
2024-05-09T09:34:28.871Z,13.6
2024-05-09T09:35:32.509Z,15.2
2024-05-09T09:36:35.070Z,16.6
2024-05-09T09:37:37.668Z,17.6
2024-05-09T09:38:40.070Z,18.5
2024-05-09T09:39:42.433Z,19.2
2024-05-09T09:41:50.196Z,5.8
2024-05-09T09:42:52.798Z,8.9
2024-05-09T09:43:55.213Z,11.5
2024-05-09T09:46:02.996Z,5.8
2024-05-09T09:47:06.348Z,9
2024-05-09T09:48:08.965Z,11.5
2024-05-09T09:49:12.348Z,13.5
2024-05-09T09:51:20.402Z,5.9
2024-05-09T09:52:23.039Z,9
2024-05-09T09:53:25.831Z,11.5
2024-05-09T09:54:28.393Z,13.6
2024-05-09T09:55:31.055Z,15.2
2024-05-09T09:56:33.500Z,16.6
2024-05-09T09:57:35.955Z,17.6
2024-05-09T09:58:38.622Z,18.5
2024-05-09T09:59:41.105Z,19.2
2024-05-09T10:00:44.067Z,19.8
2024-05-09T10:01:48.320Z,20.2
2024-05-09T10:02:51.427Z,20.6
2024-05-09T10:03:54.372Z,20.9
2024-05-09T10:04:57.579Z,21.2
2024-05-09T10:06:00.601Z,21.4
2024-05-09T10:07:03.537Z,21.6
2024-05-09T10:08:06.110Z,21.7
2024-05-09T10:09:08.550Z,21.8
2024-05-09T10:11:16.154Z,5.8
2024-05-09T10:12:18.599Z,9
2024-05-09T10:13:21.699Z,11.5
2024-05-09T10:14:24.657Z,13.5
2024-05-09T10:15:27.315Z,15.1
2024-05-09T10:16:30.306Z,16.5
2024-05-09T10:17:33.465Z,17.6
2024-05-09T10:18:36.973Z,18.5
2024-05-09T10:19:40.523Z,19.2
2024-05-09T10:20:43.233Z,19.8
2024-05-09T10:21:46.070Z,20.2
2024-05-09T10:22:48.924Z,20.6
2024-05-09T10:23:51.389Z,20.9
2024-05-09T10:24:53.958Z,21.1
2024-05-09T10:25:56.795Z,21.3
2024-05-09T10:26:59.230Z,21.5
2024-05-09T10:28:01.531Z,21.6
2024-05-09T10:29:04.144Z,21.8
2024-05-09T10:31:12.174Z,5.8
2024-05-09T10:32:15.520Z,8.9
2024-05-09T10:33:18.457Z,11.5
2024-05-09T10:34:22.043Z,13.5
2024-05-09T10:35:26.543Z,15.2
2024-05-09T10:36:29.122Z,16.5
2024-05-09T10:37:31.902Z,17.5
2024-05-09T10:38:34.661Z,18.4
2024-05-09T10:39:37.185Z,19.1
2024-05-09T10:40:40.150Z,19.7
2024-05-09T10:41:43.101Z,20.2
2024-05-09T10:42:45.375Z,20.6
2024-05-09T10:43:48.182Z,20.9
2024-05-09T10:44:50.394Z,21.1
2024-05-09T10:45:52.935Z,21.3
2024-05-09T10:46:55.811Z,21.5
2024-05-09T10:47:58.828Z,21.6
2024-05-09T10:51:12.520Z,5.8
2024-05-09T10:52:15.340Z,8.9
2024-05-09T10:53:18.215Z,11.5
2024-05-09T10:54:20.675Z,13.5
2024-05-09T10:55:23.393Z,15.1
2024-05-09T10:56:26.299Z,16.5
2024-05-09T10:57:28.812Z,17.6
2024-05-09T10:58:31.373Z,18.5
2024-05-09T10:59:33.806Z,19.2
2024-05-09T11:00:37.320Z,19.7
2024-05-09T11:01:40.507Z,20.2
2024-05-09T11:02:44.178Z,20.6
2024-05-09T11:03:47.774Z,20.9
2024-05-09T11:04:51.406Z,21.1
2024-05-09T11:05:54.611Z,21.3
2024-05-09T11:06:57.598Z,21.5
2024-05-09T11:08:05.686Z,5.8
2024-05-09T11:09:07.773Z,9
2024-05-09T11:11:15.410Z,5.8
2024-05-09T11:13:23.320Z,5.8
2024-05-09T11:14:25.742Z,9
2024-05-09T11:15:28.461Z,11.5
2024-05-09T11:16:31.222Z,13.5
2024-05-09T11:17:34.011Z,15.1
2024-05-09T11:19:42.192Z,5.8
2024-05-09T11:20:45.204Z,8.9
2024-05-09T11:21:47.821Z,11.4
2024-05-09T11:22:50.510Z,13.5
2024-05-09T11:23:53.015Z,15.2
2024-05-09T11:24:55.888Z,16.5
2024-05-09T11:25:58.555Z,17.5
2024-05-09T11:27:01.290Z,18.4
2024-05-09T11:28:04.025Z,19.1
2024-05-09T11:29:06.753Z,19.7
2024-05-09T11:31:14.493Z,5.8
2024-05-09T11:32:17.227Z,8.9
2024-05-09T11:33:20.224Z,11.5
2024-05-09T11:34:22.818Z,13.5
2024-05-09T11:35:25.620Z,15.1
2024-05-09T11:36:27.895Z,16.4
2024-05-09T11:37:30.989Z,17.5
2024-05-09T11:38:38.018Z,5.8
2024-05-09T11:39:40.650Z,8.9
2024-05-09T11:40:43.501Z,11.4
2024-05-09T11:41:46.083Z,13.5
2024-05-09T11:43:53.709Z,5.9
2024-05-09T11:44:56.150Z,9
2024-05-09T11:45:58.675Z,11.5
2024-05-09T11:47:01.541Z,13.5
2024-05-09T11:48:04.225Z,15.2
2024-05-09T11:49:07.636Z,16.5
2024-05-09T11:51:16.455Z,5.8
2024-05-09T11:52:18.989Z,8.9
2024-05-09T11:53:21.615Z,11.5
2024-05-09T11:54:24.185Z,13.5
2024-05-09T11:55:28.934Z,15.2
2024-05-09T11:56:31.698Z,16.5
2024-05-09T11:57:34.228Z,17.6
2024-05-09T11:58:36.845Z,18.5
2024-05-09T11:59:39.316Z,19.2
2024-05-09T12:00:41.987Z,19.8
2024-05-09T12:01:45.481Z,20.2
2024-05-09T12:02:48.535Z,20.6
2024-05-09T12:03:51.071Z,20.9
2024-05-09T12:04:54.731Z,21.1
2024-05-09T12:05:58.046Z,21.3
2024-05-09T12:07:01.005Z,21.5
2024-05-09T12:08:03.690Z,21.6
2024-05-09T12:09:06.125Z,21.7
2024-05-09T12:11:14.038Z,5.8
2024-05-09T12:12:16.866Z,8.9
2024-05-09T12:13:19.630Z,11.5
2024-05-09T12:14:22.853Z,13.5
2024-05-09T12:15:25.316Z,15.1
2024-05-09T12:16:28.063Z,16.5
2024-05-09T12:17:31.592Z,17.6
2024-05-09T12:18:34.762Z,18.5
2024-05-09T12:19:37.998Z,19.2
2024-05-09T12:20:40.771Z,19.7
2024-05-09T12:21:43.373Z,20.2
2024-05-09T12:22:45.782Z,20.6
2024-05-09T12:23:48.273Z,20.9
2024-05-09T12:24:50.851Z,21.1
2024-05-09T12:25:53.475Z,21.4
2024-05-09T12:26:55.932Z,21.5
2024-05-09T12:27:58.504Z,21.6
2024-05-09T12:29:01.766Z,21.7
2024-05-09T12:30:08.925Z,21.8
2024-05-09T12:31:12.171Z,5.8
2024-05-09T12:32:14.842Z,9
2024-05-09T12:33:17.977Z,11.5
2024-05-09T12:34:21.074Z,13.5
2024-05-09T12:35:23.763Z,15.2
2024-05-09T12:36:26.187Z,16.5
2024-05-09T12:37:28.715Z,17.7
2024-05-09T12:38:31.128Z,18.5
2024-05-09T12:39:33.593Z,19.2
2024-05-09T12:41:41.426Z,5.8
2024-05-09T12:42:44.110Z,8.9
2024-05-09T12:43:46.803Z,11.4
2024-05-09T12:44:49.031Z,13.5
2024-05-09T12:45:51.607Z,15.1
2024-05-09T12:46:54.433Z,16.5
2024-05-09T12:47:57.142Z,17.6
2024-05-09T12:49:01.404Z,18.5
2024-05-09T12:51:10.301Z,5.8
2024-05-09T12:52:12.677Z,8.9
2024-05-09T12:53:15.712Z,11.4
2024-05-09T12:54:18.090Z,13.5
2024-05-09T12:55:20.742Z,15.1
2024-05-09T12:56:23.108Z,16.5
2024-05-09T12:57:25.588Z,17.6
2024-05-09T12:58:28.284Z,18.4
2024-05-09T12:59:30.826Z,19.2
2024-05-09T13:00:34.259Z,19.7
2024-05-09T13:01:37.887Z,20.2
2024-05-09T13:02:41.040Z,20.6
2024-05-09T13:03:44.183Z,20.8
2024-05-09T13:04:47.119Z,21.1
2024-05-09T13:05:50.426Z,21.3
2024-05-09T13:06:53.683Z,21.5
2024-05-09T13:07:56.609Z,21.7
2024-05-09T13:08:59.314Z,21.8
2024-05-09T13:10:01.925Z,21.8
2024-05-09T13:11:06.722Z,21.9
2024-05-09T13:12:09.427Z,22
2024-05-09T13:13:12.359Z,22
2024-05-09T13:14:16.059Z,22.1
2024-05-09T13:15:18.539Z,22.1
2024-05-09T13:16:21.319Z,22.1
2024-05-09T13:17:24.850Z,22.1
2024-05-09T13:18:27.783Z,22.1
2024-05-09T13:19:30.473Z,22.1
2024-05-09T13:21:38.384Z,5.8
2024-05-09T13:22:40.882Z,9
2024-05-09T13:23:43.133Z,11.5
2024-05-09T13:24:45.612Z,13.6
2024-05-09T13:25:48.135Z,15.2
2024-05-09T13:26:50.360Z,16.5
2024-05-09T13:27:53.037Z,17.6
2024-05-09T13:28:56.149Z,18.5
2024-05-09T13:29:58.577Z,19.2
2024-05-09T13:31:01.229Z,19.8
2024-05-09T13:32:03.963Z,20.3
2024-05-09T13:33:07.785Z,20.7
2024-05-09T13:34:13.387Z,20.9
2024-05-09T13:35:16.223Z,21.2
2024-05-09T13:36:18.809Z,21.4
2024-05-09T13:37:21.282Z,21.6
2024-05-09T13:38:23.736Z,21.7
2024-05-09T13:39:26.170Z,21.8
2024-05-09T13:41:33.746Z,5.8
2024-05-09T13:42:36.396Z,8.9
2024-05-09T13:43:39.019Z,11.4
2024-05-09T13:44:41.580Z,13.5
2024-05-09T13:45:44.164Z,15.2
2024-05-09T13:46:46.932Z,16.5
2024-05-09T13:47:50.045Z,17.6
2024-05-09T13:48:53.134Z,18.5
2024-05-09T13:49:56.100Z,19.2
2024-05-09T13:50:58.758Z,19.8
2024-05-09T13:52:01.570Z,20.3
2024-05-09T13:53:04.082Z,20.7
2024-05-09T13:54:10.113Z,20.9
2024-05-09T13:55:13.012Z,21.2
2024-05-09T13:56:16.536Z,21.4
2024-05-09T13:57:18.942Z,21.5
2024-05-09T13:58:21.764Z,21.7
2024-05-09T13:59:24.989Z,21.8
2024-05-09T14:01:32.804Z,5.9
2024-05-09T14:02:36.176Z,9
2024-05-09T14:03:40.094Z,11.5
2024-05-09T14:04:43.404Z,13.5
2024-05-09T14:06:01.332Z,15.2
2024-05-09T14:07:04.090Z,16.5
2024-05-09T14:08:06.631Z,17.6
2024-05-09T14:09:09.042Z,18.5
2024-05-09T14:11:16.768Z,5.8
2024-05-09T14:12:19.360Z,8.9
2024-05-09T14:13:21.979Z,11.5
2024-05-09T14:14:24.563Z,13.5
2024-05-09T14:15:27.065Z,15.2
2024-05-09T14:16:29.815Z,16.5
2024-05-09T14:17:32.899Z,17.6
2024-05-09T14:18:36.081Z,18.5
2024-05-09T14:19:39.075Z,19.2
2024-05-09T14:20:41.731Z,19.8
2024-05-09T14:21:45.040Z,20.2
2024-05-09T14:22:47.611Z,20.6
2024-05-09T14:23:50.019Z,20.9
2024-05-09T14:24:52.552Z,21.1
2024-05-09T14:25:55.331Z,21.4
2024-05-09T14:26:58.098Z,21.5
2024-05-09T14:28:00.891Z,21.6
2024-05-09T14:29:03.645Z,21.7
2024-05-09T14:31:11.390Z,5.8
2024-05-09T14:32:14.019Z,9
2024-05-09T14:33:16.720Z,11.5
2024-05-09T14:34:20.040Z,13.5
2024-05-09T14:35:23.320Z,15.2
2024-05-09T14:36:25.566Z,16.5
2024-05-09T14:37:27.964Z,17.6
2024-05-09T14:38:30.370Z,18.5
2024-05-09T14:39:32.864Z,19.2
2024-05-09T14:41:40.432Z,5.9
2024-05-09T14:42:42.904Z,9
2024-05-09T14:43:45.325Z,11.5
2024-05-09T14:44:47.763Z,13.5
2024-05-09T14:45:50.469Z,15.2
2024-05-09T14:46:53.227Z,16.5
2024-05-09T14:47:56.085Z,17.6
2024-05-09T14:48:59.529Z,18.5
2024-05-09T14:50:02.938Z,19.2
2024-05-09T14:51:10.120Z,5.8
2024-05-09T14:52:12.738Z,9
2024-05-09T14:53:15.428Z,11.5
2024-05-09T14:54:17.890Z,13.5
2024-05-09T14:55:20.549Z,15.2
2024-05-09T14:56:23.204Z,16.6
2024-05-09T14:57:25.808Z,17.6
2024-05-09T14:58:28.463Z,18.5
2024-05-09T14:59:30.834Z,19.2
2024-05-09T15:01:38.593Z,5.8
2024-05-09T15:02:41.455Z,8.9
2024-05-09T15:03:44.438Z,11.5
2024-05-09T15:04:47.861Z,13.6
2024-05-09T15:05:52.546Z,15.2
2024-05-09T15:06:55.931Z,16.6
2024-05-09T15:07:58.661Z,17.7
2024-05-09T15:09:01.310Z,18.5
2024-05-09T15:10:07.485Z,19.3
2024-05-09T15:11:11.072Z,5.9
2024-05-09T15:12:13.664Z,9
2024-05-09T15:13:17.625Z,11.5
2024-05-09T15:14:20.827Z,13.6
2024-05-09T15:15:23.249Z,15.2
2024-05-09T15:16:25.928Z,16.6
2024-05-09T15:17:29.135Z,17.7
2024-05-09T15:18:31.981Z,18.5
2024-05-09T15:19:35.623Z,19.3
2024-05-09T15:20:39.220Z,19.9
2024-05-09T15:21:42.879Z,20.3